Aérodrome :
LOGIN :

S'inscrire | Disclaimer

   EN    FR    IT 

 










Légende :    VFR   VFR Marginal   IFR   IFR Intensif   IFR Très Intensif
Visi : 
Plafond : 
>= 8 km
>= 3000ft
5 à 8 km
1000 à 3000 ft
1500m à 5 km
500 à 1000 ft
800 à 1500m
200 à 500 ft
< 800m
< 200 ft
Symboles :   Orages  Brouillard  Fortes neiges  Fortes précipitations  Vent > 20 kt
SIGMETs :   Divers  Orages  Givrage  Turbulence  Onde Orograph.  Cendres Volcan.







- Altitude de l'aérodrome : 249 ft


EGOS - RAF Shawbury

DERNIER METAR :
  • 181050Z 10005KT 9999 SCT022 BKN028 11/08 Q1012 WHT NOSIG

METARs EXPIRÉS :
  • 180950Z 14002KT 9999 FEW026 BKN041 10/08 Q1012 BLU NOSIG
  • 180850Z 08002KT 9999 BKN041 08/07 Q1013 BLU NOSIG

TAF TAF EGOS
Valide du 18 à 09h jusqu'au 18 à 18h UTC


180743Z 1809/1818 07005KT 9999 BKN035
BECMG 1811/1813 BKN018
BECMG 1813/1815 BKN010
PROB30
TEMPO 1815/1818 4000 -DZ BKN006
Pas de NOTAMs connus pour ce terrain.
1 SIGMET publié pour la FIR London (EGTT) :
 
Turbulence forte
EGTT SIGMET 01 VALID 181000/181400 EGRR
EGTT LONDON FIR SEV TURB FCST WI N5000 W00800 - N5000 W00730 - N4900 W00707 - N4850 W00800 - N5000 W00800 FL220/350 MOV E 10KT NC=



MET'MAP, la Météo Aéronautique d'un coup d'oeil ! - Copyright ORBIFLY Décembre 2007 - Disclaimer

ORBIFLY MET'MAP TEAM :

Programmation & Développement : Alexandra Zaïnal
Conception & Développement : Baudouin d'Aumeries
Co-Programmation & Développement : Marc-Olivier Méhu
Soutien technique & logistique : Manuel Goepfert

Contact : metmap@orbifly.com




SOURCES & CREDITS :

   NOAA